createdAt,value
2023-01-20T00:00:49.904Z,22.71
2023-01-20T00:01:49.793Z,22.80
2023-01-20T00:02:49.794Z,22.74
2023-01-20T00:03:49.733Z,22.74
2023-01-20T00:04:49.683Z,22.77
2023-01-20T00:05:49.613Z,22.73
2023-01-20T00:55:50.096Z,22.45
2023-01-20T00:56:50.876Z,22.42
2023-01-20T00:57:50.853Z,22.45
2023-01-20T00:58:50.828Z,22.40
2023-01-20T00:59:50.807Z,22.42
2023-01-20T01:00:50.891Z,22.40
2023-01-20T01:01:50.981Z,22.39
2023-01-20T01:02:50.766Z,22.36
2023-01-20T01:03:50.781Z,22.39
2023-01-20T01:04:50.742Z,22.42
2023-01-20T01:05:50.728Z,22.36
2023-01-20T01:06:50.708Z,22.39
2023-01-20T01:07:50.687Z,22.39
2023-01-20T01:08:50.686Z,22.40
2023-01-20T01:09:50.664Z,22.37
2023-01-20T01:10:50.626Z,22.34
2023-01-20T01:11:50.621Z,22.33
2023-01-20T01:12:50.580Z,22.34
2023-01-20T01:13:50.638Z,22.31
2023-01-20T01:14:50.545Z,22.31
2023-01-20T01:15:50.583Z,22.28
2023-01-20T01:16:50.512Z,22.28
2023-01-20T01:17:50.507Z,22.30
2023-01-20T01:18:50.526Z,22.28
2023-01-20T01:19:50.484Z,22.30
2023-01-20T01:20:50.465Z,22.31
2023-01-20T01:21:50.466Z,22.25
2023-01-20T01:22:50.452Z,22.21
2023-01-20T01:23:50.473Z,22.28
2023-01-20T01:24:50.470Z,22.24
2023-01-20T01:25:50.440Z,22.27
2023-01-20T01:26:50.383Z,22.24
2023-01-20T01:27:50.450Z,22.24
2023-01-20T01:28:50.387Z,22.24
2023-01-20T01:29:50.341Z,22.22
2023-01-20T01:30:50.379Z,22.16
2023-01-20T01:31:50.318Z,22.18
2023-01-20T01:32:50.293Z,22.25
2023-01-20T01:33:50.383Z,22.16
2023-01-20T01:34:50.277Z,22.24
2023-01-20T01:35:50.270Z,22.23
2023-01-20T01:36:50.260Z,22.22
2023-01-20T01:37:50.239Z,22.19
2023-01-20T01:38:58.039Z,22.18
2023-01-20T01:39:50.212Z,22.16
2023-01-20T01:40:50.194Z,22.21
2023-01-20T01:41:50.180Z,22.25
2023-01-20T01:42:50.174Z,22.16
2023-01-20T01:43:50.190Z,22.19
2023-01-20T01:44:50.148Z,22.12
2023-01-20T01:45:50.231Z,22.15
2023-01-20T01:46:50.128Z,22.16
2023-01-20T01:47:50.124Z,22.13
2023-01-20T01:48:50.104Z,22.10
2023-01-20T01:49:50.079Z,22.13
2023-01-20T01:50:50.096Z,22.13
2023-01-20T01:51:50.054Z,22.19
2023-01-20T01:52:50.041Z,22.15
2023-01-20T01:53:50.027Z,22.09
2023-01-20T01:54:50.042Z,22.12
2023-01-20T01:55:50.039Z,22.10
2023-01-20T01:56:49.995Z,22.10
2023-01-20T01:57:49.980Z,22.07
2023-01-20T01:58:49.958Z,22.07
2023-01-20T01:59:49.968Z,22.09
2023-01-20T02:00:50.030Z,22.12
2023-01-20T02:01:50.095Z,22.09
2023-01-20T02:02:49.917Z,22.09
2023-01-20T02:03:49.902Z,22.00
2023-01-20T02:04:49.892Z,22.06
2023-01-20T02:05:49.964Z,22.06
2023-01-20T02:06:49.857Z,22.04
2023-01-20T02:07:49.856Z,22.03
2023-01-20T02:08:49.842Z,22.06
2023-01-20T02:09:49.829Z,22.04
2023-01-20T02:10:49.846Z,22.09
2023-01-20T02:11:49.800Z,22.02
2023-01-20T02:12:49.775Z,22.04
2023-01-20T02:13:49.761Z,22.01
2023-01-20T02:14:49.763Z,22.00
2023-01-20T02:15:49.801Z,22.00
2023-01-20T02:16:49.734Z,21.98
2023-01-20T02:17:49.711Z,21.98
2023-01-20T02:18:49.684Z,21.97
2023-01-20T02:19:49.674Z,21.98
2023-01-20T02:20:49.695Z,21.97
2023-01-20T02:21:49.678Z,21.97
2023-01-20T02:22:49.662Z,21.94
2023-01-20T02:23:49.648Z,21.98
2023-01-20T02:24:49.707Z,21.97
2023-01-20T02:25:49.647Z,22.00
2023-01-20T02:26:49.589Z,22.02
2023-01-20T02:27:49.564Z,21.95
2023-01-20T02:28:49.560Z,21.91
2023-01-20T02:29:49.557Z,21.97
2023-01-20T02:30:49.637Z,21.97
2023-01-20T02:31:49.579Z,21.88
2023-01-20T02:32:49.473Z,21.94
2023-01-20T02:33:49.469Z,21.91
2023-01-20T02:34:49.446Z,21.88
2023-01-20T02:35:49.425Z,21.91
2023-01-20T02:36:49.418Z,21.86
2023-01-20T02:37:49.423Z,21.94
2023-01-20T02:38:49.397Z,21.89
2023-01-20T02:39:49.416Z,21.95
2023-01-20T02:40:49.407Z,21.88
2023-01-20T02:41:49.362Z,21.89
2023-01-20T02:42:49.354Z,21.91
2023-01-20T02:43:49.331Z,21.83
2023-01-20T02:44:49.356Z,21.83
2023-01-20T02:45:49.368Z,21.83
2023-01-20T02:46:49.285Z,21.85
2023-01-20T02:47:51.802Z,21.86
2023-01-20T02:48:49.270Z,21.86
2023-01-20T02:49:49.259Z,21.85
2023-01-20T02:50:49.250Z,21.86
2023-01-20T02:51:49.239Z,21.86
2023-01-20T02:52:49.220Z,21.85
2023-01-20T02:53:49.204Z,21.78
2023-01-20T02:54:49.191Z,21.77
2023-01-20T02:55:49.197Z,21.83
2023-01-20T02:56:49.160Z,21.85
2023-01-20T02:57:49.141Z,21.82
2023-01-20T02:58:49.136Z,21.88
2023-01-20T02:59:49.121Z,21.85
2023-01-20T03:00:49.227Z,21.79
2023-01-20T03:01:49.240Z,21.80
2023-01-20T03:02:49.079Z,21.80
2023-01-20T03:03:49.174Z,21.77
2023-01-20T03:04:49.046Z,21.79
2023-01-20T03:05:49.106Z,21.76
2023-01-20T03:06:49.019Z,21.76
2023-01-20T03:07:49.013Z,21.80
2023-01-20T03:08:49.019Z,21.77
2023-01-20T03:09:49.002Z,21.79
2023-01-20T03:10:48.982Z,21.79
2023-01-20T03:11:48.970Z,21.79
2023-01-20T03:12:48.960Z,21.77
2023-01-20T03:13:48.973Z,21.79
2023-01-20T03:14:48.940Z,21.77
2023-01-20T03:15:48.943Z,21.79
2023-01-20T03:16:48.942Z,21.77
2023-01-20T03:17:48.901Z,21.74
2023-01-20T03:18:48.897Z,21.70
2023-01-20T03:19:48.914Z,21.82
2023-01-20T03:20:48.926Z,21.76
2023-01-20T03:21:48.875Z,21.77
2023-01-20T03:22:48.863Z,21.77
2023-01-20T03:23:48.861Z,21.76
2023-01-20T03:24:48.856Z,21.76
2023-01-20T03:25:48.878Z,21.74
2023-01-20T03:26:48.839Z,21.77
2023-01-20T03:27:48.864Z,21.73
2023-01-20T03:28:48.915Z,21.74
2023-01-20T03:29:48.822Z,21.73
2023-01-20T03:30:48.896Z,21.79
2023-01-20T03:31:48.852Z,21.72
2023-01-20T03:32:48.811Z,21.77
2023-01-20T03:33:48.773Z,21.76
2023-01-20T03:34:48.765Z,21.79
2023-01-20T03:35:48.779Z,21.76
2023-01-20T03:36:48.737Z,21.72
2023-01-20T03:37:48.792Z,21.74
2023-01-20T03:38:48.711Z,21.73
2023-01-20T03:39:48.696Z,21.74
2023-01-20T03:40:48.701Z,21.73
2023-01-20T03:41:48.681Z,21.76
2023-01-20T03:42:48.698Z,21.79
2023-01-20T03:43:48.672Z,21.74
2023-01-20T03:44:48.655Z,21.72
2023-01-20T03:45:48.679Z,21.72
2023-01-20T03:46:48.637Z,21.72
2023-01-20T03:47:48.628Z,21.73
2023-01-20T03:48:48.590Z,21.70
2023-01-20T03:49:48.583Z,21.73
2023-01-20T03:50:48.571Z,21.73
2023-01-20T03:51:48.584Z,21.70
2023-01-20T03:52:48.810Z,21.70
2023-01-20T03:53:48.542Z,21.72
2023-01-20T03:54:48.525Z,21.74
2023-01-20T03:55:48.513Z,21.72
2023-01-20T03:56:48.491Z,21.69
2023-01-20T03:57:48.478Z,21.70
2023-01-20T03:58:48.453Z,21.67
2023-01-20T03:59:48.434Z,21.72
2023-01-20T04:00:48.424Z,21.72
2023-01-20T04:01:48.545Z,21.70
2023-01-20T04:02:48.376Z,21.64
2023-01-20T04:03:48.374Z,21.69
2023-01-20T04:04:48.354Z,21.66
2023-01-20T04:05:48.359Z,21.73
2023-01-20T04:06:48.325Z,21.69
2023-01-20T04:07:48.322Z,21.66
2023-01-20T04:08:48.343Z,21.70
2023-01-20T04:09:48.257Z,21.64
2023-01-20T04:10:48.248Z,21.65
2023-01-20T04:11:48.237Z,21.67
2023-01-20T04:12:48.219Z,21.61
2023-01-20T04:13:48.208Z,21.66
2023-01-20T04:14:48.215Z,21.67
2023-01-20T04:15:48.185Z,21.66
2023-01-20T04:16:48.158Z,21.66
2023-01-20T04:17:48.135Z,21.65
2023-01-20T04:18:48.121Z,21.63
2023-01-20T04:19:48.105Z,21.64
2023-01-20T04:20:48.076Z,21.64
2023-01-20T04:21:48.060Z,21.62
2023-01-20T04:22:48.055Z,21.64
2023-01-20T04:23:48.093Z,21.64
2023-01-20T04:24:48.054Z,21.65
2023-01-20T04:25:48.012Z,21.63
2023-01-20T04:26:47.996Z,21.67
2023-01-20T04:27:48.037Z,21.58
2023-01-20T04:28:47.958Z,21.64
2023-01-20T04:29:47.978Z,21.67
2023-01-20T04:30:48.077Z,21.58
2023-01-20T04:31:47.993Z,21.58
2023-01-20T04:32:47.895Z,21.66
2023-01-20T04:33:47.882Z,21.59
2023-01-20T04:34:47.867Z,21.62
2023-01-20T04:35:47.848Z,21.61
2023-01-20T04:36:47.842Z,21.59
2023-01-20T04:37:47.825Z,21.58
2023-01-20T04:38:47.800Z,21.58
2023-01-20T04:39:47.803Z,21.54
2023-01-20T04:40:47.765Z,21.57
2023-01-20T04:41:47.760Z,21.57
2023-01-20T04:42:47.742Z,21.55
2023-01-20T04:43:47.732Z,21.53
2023-01-20T04:44:47.725Z,21.57
2023-01-20T04:45:47.699Z,21.55
2023-01-20T04:46:47.691Z,21.57
2023-01-20T04:47:47.779Z,21.49
2023-01-20T04:48:47.682Z,21.55
2023-01-20T04:49:47.683Z,21.59
2023-01-20T04:50:47.668Z,21.53
2023-01-20T04:51:47.648Z,21.55
2023-01-20T04:52:47.644Z,21.49
2023-01-20T04:53:47.666Z,21.52
2023-01-20T04:54:47.634Z,21.49
2023-01-20T04:55:47.658Z,21.55
2023-01-20T04:56:47.613Z,21.54
2023-01-20T04:57:47.609Z,21.52
2023-01-20T04:58:47.617Z,21.55
2023-01-20T04:59:47.587Z,21.48
2023-01-20T05:00:47.577Z,21.55
2023-01-20T05:01:47.709Z,21.51
2023-01-20T05:02:47.674Z,21.55
2023-01-20T05:03:47.545Z,21.51
2023-01-20T05:04:47.528Z,21.55
2023-01-20T05:05:47.521Z,21.46
2023-01-20T05:06:47.514Z,21.51
2023-01-20T05:07:47.529Z,21.54
2023-01-20T05:08:47.480Z,21.57
2023-01-20T05:09:47.453Z,21.51
2023-01-20T05:10:47.444Z,21.48
2023-01-20T05:11:47.463Z,21.52
2023-01-20T05:12:47.434Z,21.46
2023-01-20T05:13:47.417Z,21.52
2023-01-20T05:14:47.410Z,21.46
2023-01-20T05:15:47.389Z,21.49
2023-01-20T05:16:47.393Z,21.52
2023-01-20T05:17:47.365Z,21.46
2023-01-20T05:18:47.358Z,21.51
2023-01-20T05:19:47.338Z,21.52
2023-01-20T05:20:47.339Z,21.45
2023-01-20T05:21:47.313Z,21.48
2023-01-20T05:22:47.341Z,21.49
2023-01-20T05:23:47.287Z,21.52
2023-01-20T05:24:47.299Z,21.49
2023-01-20T05:25:47.256Z,21.46
2023-01-20T05:26:47.241Z,21.46
2023-01-20T05:27:47.267Z,21.46
2023-01-20T05:28:47.217Z,21.48
2023-01-20T05:29:47.241Z,21.45
2023-01-20T05:30:47.289Z,21.43
2023-01-20T05:31:47.180Z,21.48
2023-01-20T05:32:47.153Z,21.47
2023-01-20T05:33:47.150Z,21.48
2023-01-20T05:34:47.193Z,21.49
2023-01-20T05:35:47.142Z,21.46
2023-01-20T05:36:47.121Z,21.46
2023-01-20T05:37:47.102Z,21.46
2023-01-20T05:38:47.097Z,21.48
2023-01-20T05:39:47.095Z,21.52
2023-01-20T05:40:47.075Z,21.51
2023-01-20T05:41:47.074Z,21.46
2023-01-20T05:42:47.057Z,21.43
2023-01-20T05:43:47.107Z,21.48
2023-01-20T05:44:47.036Z,21.51
2023-01-20T05:45:47.025Z,21.44
2023-01-20T05:46:46.993Z,21.46
2023-01-20T05:47:46.987Z,21.40
2023-01-20T05:48:46.976Z,21.42
2023-01-20T05:49:46.990Z,21.39
2023-01-20T05:50:47.009Z,21.39
2023-01-20T05:51:46.940Z,21.42
2023-01-20T05:52:49.343Z,21.40
2023-01-20T05:53:46.961Z,21.37
2023-01-20T05:54:46.913Z,21.36
2023-01-20T05:55:46.896Z,21.37
2023-01-20T05:56:46.914Z,21.39
2023-01-20T05:57:46.872Z,21.37
2023-01-20T05:58:46.867Z,21.42
2023-01-20T05:59:46.889Z,21.34
2023-01-20T06:00:46.861Z,21.39
2023-01-20T06:01:46.905Z,21.43
2023-01-20T06:02:46.931Z,21.37
2023-01-20T06:03:46.908Z,21.42
2023-01-20T06:04:46.872Z,21.40
2023-01-20T06:05:46.844Z,21.40
2023-01-20T06:06:46.831Z,21.34
2023-01-20T06:07:46.872Z,21.37
2023-01-20T06:08:46.821Z,21.40
2023-01-20T06:09:46.817Z,21.37
2023-01-20T06:10:46.941Z,21.30
2023-01-20T06:11:46.800Z,21.37
2023-01-20T06:12:46.797Z,21.37
2023-01-20T06:13:46.812Z,21.31
2023-01-20T06:14:46.780Z,21.39
2023-01-20T06:15:46.822Z,21.37
2023-01-20T06:16:46.769Z,21.40
2023-01-20T06:17:46.755Z,21.36
2023-01-20T06:18:46.753Z,21.34
2023-01-20T06:19:46.801Z,21.30
2023-01-20T06:20:46.942Z,21.40
2023-01-20T06:21:46.999Z,21.36
2023-01-20T06:22:46.704Z,21.37
2023-01-20T06:23:46.943Z,21.39
2023-01-20T06:24:46.927Z,21.35
2023-01-20T06:25:46.690Z,21.37
2023-01-20T06:26:46.678Z,21.37
2023-01-20T06:27:46.677Z,21.46
2023-01-20T06:28:46.669Z,21.37
2023-01-20T06:29:46.922Z,21.36
2023-01-20T06:30:46.735Z,21.39
2023-01-20T06:31:46.758Z,21.42
2023-01-20T06:32:46.650Z,21.43
2023-01-20T06:33:46.640Z,21.41
2023-01-20T06:34:46.648Z,21.41
2023-01-20T06:35:46.613Z,21.48
2023-01-20T06:36:46.607Z,21.45
2023-01-20T06:37:46.612Z,21.52
2023-01-20T06:38:46.601Z,21.49
2023-01-20T06:39:46.931Z,21.52
2023-01-20T06:40:46.593Z,21.57
2023-01-20T06:41:46.597Z,21.64
2023-01-20T06:42:46.581Z,21.60
2023-01-20T06:43:46.577Z,21.64
2023-01-20T06:44:46.937Z,21.69
2023-01-20T06:45:46.579Z,21.66
2023-01-20T06:46:48.294Z,21.72
2023-01-20T06:47:46.592Z,21.77
2023-01-20T06:48:46.556Z,21.75
2023-01-20T06:49:46.966Z,21.80
2023-01-20T06:50:46.712Z,21.83
2023-01-20T06:51:46.646Z,21.84
2023-01-20T06:52:46.528Z,21.89
2023-01-20T06:53:46.520Z,21.96
2023-01-20T06:54:46.929Z,22.00
2023-01-20T06:55:47.951Z,22.36
2023-01-20T06:56:46.499Z,22.96
2023-01-20T06:57:46.497Z,22.84
2023-01-20T06:58:46.488Z,22.90
2023-01-20T06:59:46.954Z,23.02
2023-01-20T07:00:46.495Z,22.71
2023-01-20T07:01:46.633Z,21.96
2023-01-20T07:02:46.499Z,21.81
2023-01-20T07:03:46.481Z,20.15
2023-01-20T07:04:46.959Z,20.50
2023-01-20T07:05:46.438Z,21.48
2023-01-20T07:06:46.433Z,19.84
2023-01-20T07:07:46.447Z,19.77
2023-01-20T07:08:46.432Z,20.21
2023-01-20T07:09:46.505Z,20.16
2023-01-20T07:10:46.481Z,20.44
2023-01-20T07:11:46.448Z,20.31
2023-01-20T07:12:46.457Z,21.15
2023-01-20T07:13:46.426Z,22.04
2023-01-20T07:14:46.465Z,22.61
2023-01-20T07:15:46.438Z,22.43
2023-01-20T07:16:47.018Z,22.61
2023-01-20T07:17:46.431Z,22.77
2023-01-20T07:18:46.419Z,22.93
2023-01-20T07:19:46.495Z,23.11
2023-01-20T07:20:46.413Z,23.34
2023-01-20T07:21:46.414Z,23.58
2023-01-20T07:22:46.403Z,23.72
2023-01-20T07:23:46.405Z,23.90
2023-01-20T07:24:46.446Z,23.89
2023-01-20T07:25:46.373Z,24.05
2023-01-20T07:26:46.371Z,24.21
2023-01-20T07:27:46.333Z,24.40
2023-01-20T07:28:46.452Z,24.41
2023-01-20T07:29:46.443Z,24.65
2023-01-20T07:30:46.373Z,24.65
2023-01-20T07:31:46.432Z,24.76
2023-01-20T07:32:46.301Z,25.10
2023-01-20T07:33:46.305Z,25.15
2023-01-20T07:34:47.746Z,25.34
2023-01-20T07:35:46.297Z,25.35
2023-01-20T07:36:46.268Z,25.48
2023-01-20T07:37:46.252Z,25.63
2023-01-20T07:38:46.209Z,25.66
2023-01-20T07:39:46.448Z,25.97
2023-01-20T07:40:46.187Z,25.97
2023-01-20T07:41:47.165Z,25.99
2023-01-20T07:42:46.158Z,26.15
2023-01-20T07:43:46.976Z,26.31
2023-01-20T07:44:47.153Z,26.34
2023-01-20T07:45:46.390Z,26.47
2023-01-20T07:46:46.099Z,26.47
2023-01-20T07:47:46.070Z,26.71
2023-01-20T07:48:46.476Z,26.88
2023-01-20T07:49:46.043Z,26.93
2023-01-20T07:50:46.078Z,27.05
2023-01-20T07:51:46.022Z,27.10
2023-01-20T07:52:45.984Z,27.33
2023-01-20T07:53:45.977Z,27.41
2023-01-20T07:54:46.454Z,27.42
2023-01-20T07:55:45.955Z,27.54
2023-01-20T07:56:46.451Z,27.69
2023-01-20T07:57:45.876Z,27.77
2023-01-20T07:58:45.862Z,27.96
2023-01-20T07:59:45.837Z,27.83
2023-01-20T08:00:46.067Z,27.93
2023-01-20T08:01:45.906Z,27.91
2023-01-20T08:02:45.770Z,28.04
2023-01-20T08:03:45.735Z,28.18
2023-01-20T08:04:45.718Z,28.16
2023-01-20T08:05:45.957Z,28.30
2023-01-20T08:06:45.673Z,28.30
2023-01-20T08:07:45.676Z,28.39
2023-01-20T08:08:45.636Z,28.52
2023-01-20T08:09:45.611Z,28.60
2023-01-20T08:10:46.007Z,28.70
2023-01-20T08:11:46.567Z,28.76
2023-01-20T08:12:45.917Z,28.80
2023-01-20T08:13:45.517Z,29.01
2023-01-20T08:14:45.497Z,29.03
2023-01-20T08:15:45.535Z,29.22
2023-01-20T08:16:45.486Z,29.29
2023-01-20T08:17:45.415Z,29.43
2023-01-20T08:18:45.392Z,29.59
2023-01-20T08:19:45.361Z,29.82
2023-01-20T08:20:45.499Z,30.03
2023-01-20T08:21:45.336Z,30.05
2023-01-20T08:22:45.291Z,30.05
2023-01-20T08:23:45.496Z,29.99
2023-01-20T08:24:45.249Z,30.19
2023-01-20T08:25:45.242Z,30.34
2023-01-20T08:26:45.218Z,30.14
2023-01-20T08:27:45.192Z,30.20
2023-01-20T08:28:45.508Z,30.30
2023-01-20T08:29:45.203Z,30.24
2023-01-20T08:30:45.352Z,30.29
2023-01-20T08:31:45.314Z,30.33
2023-01-20T08:32:45.129Z,30.15
2023-01-20T08:33:45.466Z,29.93
2023-01-20T08:34:45.175Z,29.82
2023-01-20T08:35:48.518Z,29.74
2023-01-20T08:36:45.068Z,29.43
2023-01-20T08:37:45.095Z,29.34
2023-01-20T08:38:45.503Z,29.31
2023-01-20T08:39:45.095Z,29.39
2023-01-20T08:40:44.995Z,29.23
2023-01-20T08:41:45.470Z,29.04
2023-01-20T08:42:44.966Z,28.88
2023-01-20T08:43:44.967Z,28.52
2023-01-20T08:44:45.017Z,28.56
2023-01-20T08:45:45.019Z,28.75
2023-01-20T08:46:44.917Z,28.90
2023-01-20T08:47:44.916Z,28.83
2023-01-20T08:48:44.831Z,28.90
2023-01-20T08:49:44.990Z,29.07
2023-01-20T08:50:45.795Z,29.15
2023-01-20T08:51:44.873Z,29.37
2023-01-20T08:52:44.768Z,29.38
2023-01-20T08:53:45.013Z,28.86
2023-01-20T08:54:44.720Z,26.54
2023-01-20T08:55:44.755Z,24.12
2023-01-20T08:56:45.013Z,27.18
2023-01-20T08:57:44.980Z,28.24
2023-01-20T08:58:44.662Z,28.65
2023-01-20T08:59:44.658Z,28.36
2023-01-20T09:00:45.002Z,28.15
2023-01-20T09:01:45.056Z,28.03
2023-01-20T09:02:45.090Z,28.45
2023-01-20T09:03:58.919Z,28.29
2023-01-20T09:04:44.985Z,28.13
2023-01-20T09:05:44.569Z,28.11
2023-01-20T09:06:44.590Z,28.16
2023-01-20T09:07:44.561Z,28.29
2023-01-20T09:08:44.537Z,28.38
2023-01-20T09:09:44.575Z,28.56
2023-01-20T09:10:44.502Z,28.83
2023-01-20T09:11:44.625Z,28.83
2023-01-20T09:12:44.466Z,28.84
2023-01-20T09:13:44.444Z,29.09
2023-01-20T09:14:44.433Z,29.33
2023-01-20T09:15:44.514Z,29.27
2023-01-20T09:16:44.378Z,29.50
2023-01-20T09:17:44.442Z,29.57
2023-01-20T09:18:44.521Z,29.82
2023-01-20T09:19:44.331Z,29.80
2023-01-20T09:20:44.314Z,30.04
2023-01-20T09:21:44.287Z,30.12
2023-01-20T09:22:44.248Z,30.00
2023-01-20T09:23:44.263Z,30.61
2023-01-20T09:24:44.492Z,30.39
2023-01-20T09:25:44.152Z,30.75
2023-01-20T09:26:44.133Z,30.51
2023-01-20T09:27:44.122Z,30.54
2023-01-20T09:28:44.063Z,30.52
2023-01-20T09:29:44.488Z,30.57
2023-01-20T09:30:44.158Z,30.80
2023-01-20T09:31:44.619Z,30.93
2023-01-20T09:32:43.982Z,30.93
2023-01-20T09:33:43.929Z,30.98
2023-01-20T09:34:44.013Z,30.94
2023-01-20T09:35:43.890Z,31.07
2023-01-20T09:36:44.017Z,31.16
2023-01-20T09:37:43.822Z,31.32
2023-01-20T09:38:43.808Z,31.34
2023-01-20T09:39:43.793Z,31.42
2023-01-20T09:40:43.756Z,31.50
2023-01-20T09:41:43.749Z,31.68
2023-01-20T09:42:43.999Z,32.44
2023-01-20T09:43:44.557Z,32.68
2023-01-20T09:44:43.653Z,31.69
2023-01-20T09:45:43.619Z,31.61
2023-01-20T09:46:44.604Z,31.96
2023-01-20T09:47:43.585Z,32.15
2023-01-20T09:48:43.570Z,32.00
2023-01-20T09:49:44.002Z,32.11
2023-01-20T09:50:43.531Z,32.12
2023-01-20T09:51:43.492Z,32.21
2023-01-20T09:52:43.508Z,32.31
2023-01-20T09:53:43.452Z,32.42
2023-01-20T09:54:43.502Z,32.52
2023-01-20T09:55:44.360Z,32.51
2023-01-20T09:56:43.333Z,32.57
2023-01-20T09:57:43.313Z,32.62
2023-01-20T09:58:43.291Z,32.83
2023-01-20T09:59:43.529Z,32.72
2023-01-20T10:00:43.233Z,32.87
2023-01-20T10:01:43.230Z,33.01
2023-01-20T10:02:43.197Z,33.04
2023-01-20T10:03:43.182Z,33.06
2023-01-20T10:04:43.513Z,33.30
2023-01-20T10:05:43.201Z,33.26
2023-01-20T10:06:43.094Z,33.22
2023-01-20T10:07:43.536Z,33.51
2023-01-20T10:08:52.601Z,33.49
2023-01-20T10:09:44.049Z,33.46
2023-01-20T10:10:43.507Z,33.66
2023-01-20T10:11:43.074Z,33.85
2023-01-20T10:12:42.975Z,33.77
2023-01-20T10:13:42.944Z,33.91
2023-01-20T10:14:42.935Z,33.92
2023-01-20T10:15:43.070Z,33.99
2023-01-20T10:16:42.892Z,34.09
2023-01-20T10:17:42.873Z,34.13
2023-01-20T10:18:42.857Z,34.23
2023-01-20T10:19:43.071Z,34.22
2023-01-20T10:20:42.806Z,34.32
2023-01-20T10:21:42.773Z,34.34
2023-01-20T10:22:42.721Z,34.39
2023-01-20T10:23:43.029Z,34.40
2023-01-20T10:24:42.688Z,34.51
2023-01-20T10:25:42.653Z,34.61
2023-01-20T10:26:42.649Z,34.62
2023-01-20T10:27:42.587Z,34.74
2023-01-20T10:28:43.052Z,34.85
2023-01-20T10:29:42.546Z,34.80
2023-01-20T10:30:42.671Z,34.87
2023-01-20T10:31:42.556Z,35.02
2023-01-20T10:32:42.448Z,35.24
2023-01-20T10:33:42.636Z,34.91
2023-01-20T10:34:42.406Z,35.06
2023-01-20T10:35:42.366Z,35.25
2023-01-20T10:36:45.522Z,36.31
2023-01-20T10:37:42.309Z,36.25
2023-01-20T10:38:42.277Z,36.58
2023-01-20T10:39:42.519Z,36.93
2023-01-20T10:40:42.313Z,36.77
2023-01-20T10:41:42.194Z,36.20
2023-01-20T10:42:42.552Z,36.07
2023-01-20T10:43:42.539Z,34.20
2023-01-20T10:44:42.113Z,33.11
2023-01-20T10:45:42.101Z,34.84
2023-01-20T10:46:42.161Z,34.20
2023-01-20T10:47:42.574Z,33.95
2023-01-20T10:48:42.548Z,34.04
2023-01-20T10:49:42.012Z,34.16
2023-01-20T10:50:41.997Z,34.20
2023-01-20T10:51:41.972Z,34.24
2023-01-20T10:52:41.957Z,34.40
2023-01-20T10:53:41.932Z,34.68
2023-01-20T10:54:42.041Z,34.81
2023-01-20T10:55:41.887Z,35.08
2023-01-20T10:56:41.915Z,35.21
2023-01-20T10:57:41.853Z,35.26
2023-01-20T10:58:42.028Z,35.43
2023-01-20T10:59:42.024Z,35.73
2023-01-20T11:00:41.791Z,35.62
2023-01-20T11:01:41.784Z,35.87
2023-01-20T11:02:42.564Z,35.96
2023-01-20T11:03:41.749Z,35.89
2023-01-20T11:04:42.032Z,36.14
2023-01-20T11:05:41.677Z,36.17
2023-01-20T11:06:41.617Z,36.21
2023-01-20T11:07:41.600Z,36.50
2023-01-20T11:08:44.200Z,36.62
2023-01-20T11:09:42.083Z,36.57
2023-01-20T11:10:40.543Z,36.38
2023-01-20T11:11:41.506Z,36.60
2023-01-20T11:12:41.502Z,36.53
2023-01-20T11:13:41.544Z,36.27
2023-01-20T11:14:41.437Z,31.37
2023-01-20T11:15:41.413Z,31.42
2023-01-20T11:16:41.384Z,33.94
2023-01-20T11:17:41.363Z,34.89
2023-01-20T11:18:41.563Z,34.07
2023-01-20T11:19:41.386Z,33.45
2023-01-20T11:20:41.309Z,33.52
2023-01-20T11:21:41.287Z,33.42
2023-01-20T11:22:41.284Z,33.34
2023-01-20T11:23:41.234Z,33.60
2023-01-20T11:24:41.631Z,33.77
2023-01-20T11:25:41.201Z,34.17
2023-01-20T11:26:41.158Z,34.06
2023-01-20T11:27:41.145Z,19.53
2023-01-20T11:28:41.618Z,19.27
2023-01-20T11:29:41.151Z,21.94
2023-01-20T11:30:41.154Z,23.79
2023-01-20T11:31:41.271Z,24.33
2023-01-20T11:32:41.557Z,24.45
2023-01-20T11:33:42.177Z,24.80
2023-01-20T11:34:41.211Z,24.70
2023-01-20T11:35:41.241Z,25.39
2023-01-20T11:36:41.584Z,25.77
2023-01-20T11:37:41.566Z,25.80
2023-01-20T11:38:41.559Z,25.81
2023-01-20T11:39:41.217Z,25.81
2023-01-20T11:40:41.217Z,25.62
2023-01-20T11:41:41.212Z,25.74
2023-01-20T11:42:41.218Z,25.92
2023-01-20T11:43:41.636Z,26.16
2023-01-20T11:44:41.216Z,26.16
2023-01-20T11:45:41.203Z,26.26
2023-01-20T11:46:41.617Z,26.42
2023-01-20T11:47:41.194Z,26.05
2023-01-20T11:48:41.704Z,26.01
2023-01-20T11:49:41.214Z,25.73
2023-01-20T11:50:41.210Z,25.96
2023-01-20T11:51:41.274Z,26.21
2023-01-20T11:52:41.209Z,25.57
2023-01-20T11:53:41.150Z,25.74
2023-01-20T11:54:41.643Z,25.91
2023-01-20T11:55:41.151Z,26.27
2023-01-20T11:56:41.421Z,25.90
2023-01-20T11:57:41.116Z,25.90
2023-01-20T11:58:41.398Z,25.69
2023-01-20T11:59:41.580Z,25.40
2023-01-20T12:00:41.107Z,25.37
2023-01-20T12:01:41.218Z,25.42
2023-01-20T12:02:41.121Z,25.22
2023-01-20T12:03:41.089Z,25.01
2023-01-20T12:04:41.101Z,25.01
2023-01-20T12:05:41.591Z,24.79
2023-01-20T12:06:41.073Z,24.93
2023-01-20T12:07:41.091Z,24.44
2023-01-20T12:08:41.059Z,24.22
2023-01-20T12:09:41.068Z,24.48
2023-01-20T12:10:41.066Z,24.43
2023-01-20T12:11:41.226Z,24.21
2023-01-20T12:12:41.025Z,24.36
2023-01-20T12:13:41.034Z,24.24
2023-01-20T12:14:41.086Z,23.99
2023-01-20T12:15:41.073Z,23.73
2023-01-20T12:16:41.013Z,23.57
2023-01-20T12:17:40.939Z,23.62
2023-01-20T12:18:50.387Z,23.65
2023-01-20T12:19:41.119Z,23.62
2023-01-20T12:20:54.001Z,23.63
2023-01-20T12:21:40.943Z,23.98
2023-01-20T12:22:40.985Z,24.70
2023-01-20T12:23:41.959Z,25.62
2023-01-20T12:24:43.150Z,25.79
2023-01-20T12:25:40.922Z,26.14
2023-01-20T12:26:40.915Z,26.13
2023-01-20T12:27:40.914Z,26.35
2023-01-20T12:28:41.098Z,26.49
2023-01-20T12:29:40.899Z,26.33
2023-01-20T12:30:41.439Z,26.23
2023-01-20T12:31:40.911Z,25.99
2023-01-20T12:32:40.889Z,25.87
2023-01-20T12:33:40.861Z,25.83
2023-01-20T12:34:41.159Z,25.66
2023-01-20T12:35:41.016Z,25.48
2023-01-20T12:36:40.824Z,25.35
2023-01-20T12:37:40.853Z,25.35
2023-01-20T12:38:41.825Z,25.21
2023-01-20T12:39:41.172Z,25.14
2023-01-20T12:40:40.814Z,25.01
2023-01-20T12:41:40.814Z,24.97
2023-01-20T12:42:40.809Z,24.92
2023-01-20T12:43:41.803Z,24.85
2023-01-20T12:44:40.788Z,24.79
2023-01-20T12:45:41.163Z,24.84
2023-01-20T12:46:40.776Z,24.78
2023-01-20T12:47:40.797Z,24.77
2023-01-20T12:48:40.747Z,24.78
2023-01-20T12:49:40.765Z,24.71
2023-01-20T12:50:40.725Z,24.70
2023-01-20T12:51:41.064Z,24.68
2023-01-20T12:52:40.800Z,24.64
2023-01-20T12:53:40.703Z,24.63
2023-01-20T12:54:48.299Z,24.66
2023-01-20T12:55:41.172Z,24.61
2023-01-20T12:56:40.721Z,24.66
2023-01-20T12:57:40.679Z,24.60
2023-01-20T12:58:40.672Z,24.61
2023-01-20T12:59:40.669Z,24.58
2023-01-20T13:00:40.672Z,24.57
2023-01-20T13:01:40.660Z,24.56
2023-01-20T13:02:40.669Z,24.60
2023-01-20T13:03:40.664Z,24.61
2023-01-20T13:04:40.643Z,24.57
2023-01-20T13:05:40.632Z,24.57
2023-01-20T13:06:40.643Z,24.53
2023-01-20T13:07:40.624Z,24.60
2023-01-20T13:08:40.604Z,24.57
2023-01-20T13:09:41.068Z,24.56
2023-01-20T13:10:40.597Z,24.58
2023-01-20T13:11:40.609Z,24.53
2023-01-20T13:12:40.580Z,24.57
2023-01-20T13:13:55.932Z,24.54
2023-01-20T13:14:40.550Z,24.56
2023-01-20T13:15:40.636Z,24.55
2023-01-20T13:16:42.697Z,24.60
2023-01-20T13:17:40.508Z,24.57
2023-01-20T13:18:40.502Z,24.54
2023-01-20T13:19:41.299Z,24.57
2023-01-20T13:20:40.503Z,24.57
2023-01-20T13:21:40.467Z,24.53
2023-01-20T13:22:40.453Z,24.56
2023-01-20T13:23:40.446Z,24.55
2023-01-20T13:24:40.609Z,24.53
2023-01-20T13:25:40.434Z,24.50
2023-01-20T13:26:40.418Z,24.50
2023-01-20T13:27:40.434Z,24.55
2023-01-20T13:28:40.404Z,24.53
2023-01-20T13:29:40.457Z,24.51
2023-01-20T13:30:40.495Z,24.50
2023-01-20T13:31:40.506Z,24.55
2023-01-20T13:32:40.363Z,24.54
2023-01-20T13:33:40.340Z,24.53
2023-01-20T13:34:40.337Z,24.53
2023-01-20T13:35:40.336Z,24.54
2023-01-20T13:36:40.303Z,24.54
2023-01-20T13:37:40.295Z,24.53
2023-01-20T13:38:40.300Z,24.55
2023-01-20T13:39:40.279Z,24.50
2023-01-20T13:40:40.584Z,24.54
2023-01-20T13:41:40.257Z,24.54